CDT,Max TemperatureF,Mean TemperatureF,Min TemperatureF,Max Dew PointF,MeanDew PointF,Min DewpointF,Max Humidity, Mean Humidity, Min Humidity, Max Sea Level PressureIn, Mean Sea Level PressureIn, Min Sea Level PressureIn, Max VisibilityMiles, Mean VisibilityMiles, Min VisibilityMiles, Max Wind SpeedMPH, Mean Wind SpeedMPH, Max Gust SpeedMPH,PrecipitationIn, CloudCover, Events, WindDirDegrees
2013-8-1,89,76,64,72,66,58,100,75,35,30.12,30.05,29.90,10,9,1,30,5,43,1.21,1,Rain-Thunderstorm,171
2013-8-2,82,73,64,72,69,65,100,84,61,30.01,29.93,29.84,10,9,5,23,11,28,0.54,4,Rain-Thunderstorm,102
2013-8-3,81,72,64,71,65,63,96,78,54,30.18,30.10,30.01,10,10,10,13,9,17,0.00,3,,59
2013-8-4,77,70,63,72,66,60,100,87,69,30.17,30.11,30.02,10,9,1,13,8,18,0.96,8,Rain-Thunderstorm,111
2013-8-5,85,78,71,76,73,71,100,89,73,30.05,29.94,29.85,10,10,7,13,5,16,0.00,5,,162
2013-8-6,89,80,70,77,74,70,100,86,56,29.92,29.86,29.82,10,8,3,13,4,17,0.00,2,,139
2013-8-7,84,76,69,75,68,59,100,79,42,30.01,29.95,29.85,10,10,2,13,4,,0.00,0,,28
2013-8-8,75,70,66,69,67,65,97,88,76,30.04,30.01,29.97,10,10,10,10,3,,0.00,1,Rain,87
2013-8-9,80,72,65,70,67,62,100,82,57,30.17,30.09,30.03,10,10,5,8,3,,0.00,3,,32
2013-8-10,82,71,60,66,63,60,98,75,50,30.22,30.16,30.10,10,10,10,10,3,9,0.00,1,,148
2013-8-11,86,75,64,72,66,63,97,74,50,30.15,30.09,30.01,10,10,10,13,7,16,0.00,1,,185
2013-8-12,84,74,65,72,69,66,100,81,58,30.09,30.04,29.97,10,9,4,15,5,22,0.42,2,Rain-Thunderstorm,18
2013-8-13,78,70,63,67,62,57,98,77,50,30.17,30.13,30.08,10,10,2,9,5,,0.00,1,Thunderstorm,63
2013-8-14,78,68,59,67,62,58,100,82,53,30.20,30.15,30.08,10,10,7,12,4,17,0.00,3,Rain,127
2013-8-15,73,68,63,68,64,62,100,90,79,30.10,30.06,30.00,10,10,0,14,8,20,1.01,5,Rain-Thunderstorm,142
2013-8-16,73,67,61,64,63,61,98,86,71,30.17,30.14,30.09,10,10,10,10,5,,0.00,8,,109
2013-8-17,77,69,61,63,60,56,96,73,47,30.21,30.16,30.12,10,10,10,12,5,17,0.00,3,,141
2013-8-18,80,68,56,66,60,56,98,74,50,30.17,30.12,30.06,10,10,10,12,4,17,0.00,0,,156
2013-8-19,86,75,64,70,67,64,98,76,53,30.10,30.03,29.95,10,10,7,16,8,23,0.00,1,,172
2013-8-20,88,78,69,70,69,67,96,74,48,30.01,29.98,29.94,10,10,7,20,10,24,0.03,0,,189
2013-8-21,90,80,69,72,70,67,94,73,49,30.03,29.99,29.96,10,10,7,15,11,20,0.00,0,,178
2013-8-22,86,78,70,74,70,67,99,80,52,30.10,30.05,29.99,10,10,7,10,6,23,0.00,0,Thunderstorm,119
2013-8-23,89,80,72,74,71,67,98,76,49,30.10,30.04,29.98,10,10,7,16,5,21,0.00,1,,136
2013-8-24,92,83,74,74,71,68,89,69,46,30.09,30.05,30.01,10,10,10,22,11,26,0.00,0,,162
2013-8-25,93,82,72,74,72,69,96,70,46,30.15,30.11,30.07,10,10,7,16,11,22,0.00,0,,175
2013-8-26,94,84,74,73,70,68,92,66,41,30.12,30.07,29.99,10,10,10,17,11,23,0.00,0,,191
2013-8-27,94,83,72,71,68,63,91,62,41,30.02,29.99,29.94,10,10,10,17,11,22,0.00,0,,196
2013-8-28,92,80,68,73,67,61,93,66,35,30.04,30.01,29.97,10,10,7,9,7,,0.00,0,,183
2013-8-29,97,84,72,76,71,66,96,69,37,30.02,29.98,29.92,10,10,7,12,5,16,0.00,0,,154
2013-8-30,97,84,71,79,71,67,94,69,40,29.94,29.90,29.84,10,10,7,10,5,,0.00,0,,212
2013-8-31,93,84,74,78,73,66,98,76,41,29.91,29.86,29.81,10,10,7,15,5,,0.00,0,,89